METAR AND TAF INFORMATION

METAR FOR TFFR
ADDS - METARS form results

(0013 UTC 02 December 2022)
Data provider http://aviationweather.gov/metar/data/
 
METAR text: TFFR 020000Z AUTO 07007KT 3700 -RA BR FEW023 SCT050 BKN066 24/21 Q1013 TEMPO SCT020TCU BECMG 9999 NSW
Conditions at: TFFR (LE RAIZET , GP) observed 0000 UTC 02 December 2022
Temperature: 24.0°C (75°F)
Dewpoint: 21.0°C (70°F) [RH = 83%]
Pressure (altimeter): 29.91 inches Hg (1013.0 mb)
Winds: from the ENE (70 degrees) at 8 MPH (7 knots; 3.6 m/s)
Visibility: 2.30 miles (3.70 km)
Ceiling: 6600 feet AGL
Clouds: few clouds at 2300 feet AGL
scattered clouds at 5000 feet AGL
broken clouds at 6600 feet AGL
Weather: -RA BR  (light rain, mist)

METAR text: TFFR 012330Z AUTO 05004KT 9999 FEW029/// ///TCU 25/21 Q1013 TEMPO 4500 -SHRA
Conditions at: TFFR (LE RAIZET , GP) observed 2330 UTC 01 December 2022
Temperature: 25.0°C (77°F)
Dewpoint: 21.0°C (70°F) [RH = 79%]
Pressure (altimeter): 29.91 inches Hg (1013.0 mb)
Winds: from the NE (50 degrees) at 5 MPH (4 knots; 2.1 m/s)
Visibility: 6 or more miles (10+ km)
Ceiling: at least 12,000 feet AGL
Clouds: few clouds at 2900 feet AGL
Weather: no significant weather observed at this time

Forecast for: TFFR (LE RAIZET , GP)
Text: TAF TFFR 012300Z 0200/0224 VRB03KT 9999 SCT035
Forecast period: 0000 to 1200 UTC 02 December 2022
Forecast type: FROM: standard forecast or significant change
Winds: variable direction winds at 3 MPH (3 knots; 1.5 m/s)
Visibility: 6 or more miles (10+ km)
Ceiling: at least 12,000 feet AGL
Clouds: scattered clouds at 3500 feet AGL
Weather: no significant weather forecast for this period
Text: PROB30
Forecast period: 0000 to 1100 UTC 02 December 2022
Forecast type: TEMPORARY: The following changes expected for less than half the time period
Visibility: missing
Ceiling: at least 12,000 feet AGL
Clouds: scattered clouds at 2000 feet AGL
Weather: no significant weather forecast for this period
Text: TEMPO 0200/0211 SCT020TCU
Forecast period: 1200 UTC 02 December 2022 to 0000 UTC 03 December 2022
Forecast type: BECOMING: Conditions expected to become as follows by 1300 UTC 02 December 2022
Winds: from the E (80 degrees) at 12 MPH (10 knots; 5.1 m/s)
Visibility: 6 or more miles (10+ km)
Ceiling: at least 12,000 feet AGL
Clouds: scattered clouds at 3500 feet AGL
Weather: no significant weather forecast for this period

 

AIRPORT MAP

 

RUNWAY INFORMATION

Runway 12 Runway length 11499 ft Runway width 148 ft
Runway elevation 5 ft Runway displaced threshold 1312 ft Runway heading 101
Runway 30 Runway length 11499 ft Runway width 148 ft
Runway elevation 32 ft Runway displaced threshold 820 ft Runway heading 281

 

AIRPORT FREQUENCIES

Type APP Name RAIZET APP Frequency 121.3 MHZ
Type ATIS Name ATIS Frequency 127.6 MHZ
Type GND Name GND Frequency 121.85 MHZ
Type TWR Name RAIZET TWR Frequency 118.4 MHZ

 

AIRPORT NEAR NAVIGATION AIDS

Type VOR-DME Name Pointe A Pitre Frequency 112900 KHZ
Type NDB Name Pointe A Pitre Frequency 385 KHZ